Time;durP1;ratioP1;P1;durP2;ratioP2;P2;SDS_P1;SDS_P2;PMS_P1;PMS_P2;Temp;Humidity;BMP_temperature;BMP_pressure;BME280_temperature;BME280_humidity;BME280_pressure;Samples;Min_cycle;Max_cycle;Signal;HPM_P1;HPM_P2
2021/05/29 17:28:26;;;;;;;;;6.25;6.00;;;;;20.61;38.88;102117.22;5176600;27;45380;-88
2021/05/29 17:30:51;;;;;;;;;7.00;5.75;;;;;21.11;39.40;102120.72;5151693;27;45460;-88
2021/05/29 17:33:17;;;;;;;;;5.50;5.50;;;;;21.99;37.48;102115.78;5140698;27;45337;-89
2021/05/29 17:35:42;;;;;;;;;7.00;6.50;;;;;22.55;35.12;102118.66;5148915;27;45707;-88
2021/05/29 17:38:08;;;;;;;;;5.00;5.00;;;;;23.59;37.19;102115.69;5132617;27;45438;-88
2021/05/29 17:40:34;;;;;;;;;4.00;4.00;;;;;24.93;35.40;102121.75;5138366;27;45518;-89
2021/05/29 17:42:59;;;;;;;;;5.50;3.50;;;;;25.96;34.47;102109.72;5140969;27;45302;-89
2021/05/29 17:45:25;;;;;;;;;4.75;4.75;;;;;27.04;32.73;102105.81;5150901;27;47302;-87
2021/05/29 17:47:50;;;;;;;;;5.50;5.50;;;;;27.98;31.30;102112.38;5157272;27;45967;-87
2021/05/29 17:50:16;;;;;;;;;3.50;3.50;;;;;28.17;30.46;102123.44;5152686;27;45223;-89
2021/05/29 17:52:41;;;;;;;;;4.00;4.00;;;;;27.58;30.63;102116.66;5138166;27;45308;-88
2021/05/29 17:55:07;;;;;;;;;5.25;5.25;;;;;26.98;31.66;102117.94;5145936;27;47327;-86
2021/05/29 17:57:42;;;;;;;;;6.50;6.50;;;;;26.43;31.31;102114.22;5156785;27;46891;-86
2021/05/29 18:00:14;;;;;;;;;5.00;4.25;;;;;25.80;31.48;102127.09;5151557;27;45511;-90
2021/05/29 18:02:42;;;;;;;;;5.25;5.25;;;;;25.26;33.00;102132.81;5155687;27;46087;-88
2021/05/29 18:05:09;;;;;;;;;49.75;39.50;;;;;24.78;32.63;102129.09;5155031;27;45377;-88
2021/05/29 18:07:38;;;;;;;;;28.00;24.25;;;;;24.30;35.87;102143.22;5153301;27;48439;-92
2021/05/29 18:10:04;;;;;;;;;12.25;10.25;;;;;24.09;34.57;102123.09;5148556;27;45491;-77
2021/05/29 18:12:30;;;;;;;;;14.50;13.00;;;;;23.96;35.37;102128.44;5135095;27;45632;-71
2021/05/29 18:14:55;;;;;;;;;10.00;10.00;;;;;23.82;35.67;102127.59;5157596;27;45395;-71
2021/05/29 18:17:20;;;;;;;;;12.50;12.25;;;;;23.69;35.63;102129.34;5144337;27;67533;-71
2021/05/29 18:19:46;;;;;;;;;12.75;12.00;;;;;23.55;35.78;102125.78;5128825;27;45525;-72
2021/05/29 18:22:12;;;;;;;;;8.00;5.00;;;;;23.42;35.41;102131.09;5148719;27;45535;-86
2021/05/29 18:24:38;;;;;;;;;8.00;6.75;;;;;23.34;35.76;102128.03;5116976;27;46122;-81
2021/05/29 18:27:03;;;;;;;;;12.25;10.50;;;;;23.26;36.73;102132.09;5136842;27;46522;-78
2021/05/29 18:29:29;;;;;;;;;21.25;18.50;;;;;23.14;36.35;102136.44;5156158;27;45323;-60
2021/05/29 18:31:54;;;;;;;;;14.50;14.25;;;;;23.07;36.63;102137.78;5149715;27;45244;-60
2021/05/29 18:34:22;;;;;;;;;16.25;16.25;;;;;23.00;37.22;102137.31;5147835;27;58009;-60
2021/05/29 18:36:52;;;;;;;;;8.25;7.25;;;;;22.94;34.59;102135.03;5151079;27;45487;-68
2021/05/29 18:39:18;;;;;;;;;13.25;11.00;;;;;22.74;35.45;102129.16;5129194;27;45367;-68
2021/05/29 18:41:45;;;;;;;;;7.00;6.25;;;;;22.54;34.74;102131.22;5131981;27;45441;-68
2021/05/29 18:44:11;;;;;;;;;9.50;9.00;;;;;22.36;35.48;102141.25;5125894;27;45489;-68
2021/05/29 18:46:37;;;;;;;;;7.00;7.00;;;;;22.22;35.85;102137.63;5135413;27;46257;-68
2021/05/29 18:49:07;;;;;;;;;7.00;7.00;;;;;22.11;35.94;102135.56;5122579;27;45339;-68
2021/05/29 18:51:32;;;;;;;;;11.25;10.00;;;;;22.02;36.22;102142.34;5122696;27;45313;-68
2021/05/29 18:53:58;;;;;;;;;7.50;6.00;;;;;21.93;35.55;102140.22;5130899;27;45873;-68
2021/05/29 18:56:23;;;;;;;;;8.50;7.75;;;;;21.86;36.04;102144.16;5124932;27;47060;-68
2021/05/29 18:59:00;;;;;;;;;9.75;8.25;;;;;21.79;36.24;102144.56;5134703;27;45587;-68
2021/05/29 19:04:15;;;;;;;;;12.25;11.25;;;;;21.71;38.72;102149.47;5126401;27;45518;-51
2021/05/29 19:06:56;;;;;;;;;10.75;10.75;;;;;21.81;39.20;102148.00;5141053;27;46192;-54
2021/05/29 19:09:21;;;;;;;;;11.25;10.00;;;;;21.92;38.86;102149.22;5137999;27;45518;-51
2021/05/29 19:11:48;;;;;;;;;13.00;13.00;;;;;22.00;39.29;102146.91;5124112;27;45748;-53
2021/05/29 19:14:13;;;;;;;;;12.50;11.00;;;;;22.10;38.94;102143.72;5129075;27;45453;-52
2021/05/29 19:16:39;;;;;;;;;11.00;11.00;;;;;22.16;39.41;102143.31;5137821;27;46132;-53
2021/05/29 19:19:04;;;;;;;;;13.50;12.25;;;;;22.24;39.15;102150.91;5137936;27;45452;-53
2021/05/29 19:21:43;;;;;;;;;5.50;5.50;;;;;22.23;36.81;102152.72;5145213;27;45336;-90
2021/05/29 19:24:32;;;;;;;;;9.00;7.75;;;;;22.13;36.27;102148.84;5114748;27;46715;-89
2021/05/29 19:29:33;;;;;;;;;7.75;7.25;;;;;21.73;35.98;102160.94;5126537;27;45301;-89
2021/05/29 19:40:10;;;;;;;;;7.50;7.50;;;;;21.12;36.62;102175.91;5124586;27;45358;-87
2021/05/29 19:42:40;;;;;;;;;8.00;8.00;;;;;21.00;36.13;102174.78;5093752;27;45452;-87
2021/05/29 20:06:48;;;;;;;;;9.50;8.00;;;;;20.08;38.16;102190.19;5121723;27;45074;-88
2021/05/29 20:25:05;;;;;;;;;7.00;7.00;;;;;19.14;40.32;102200.81;5107191;27;45331;-87
2021/05/29 20:27:31;;;;;;;;;9.00;9.00;;;;;19.08;40.90;102217.97;5118017;27;46740;-88
2021/05/29 20:29:56;;;;;;;;;6.75;6.75;;;;;19.03;40.50;102213.78;5120579;27;45894;-88
2021/05/29 20:32:22;;;;;;;;;9.75;6.50;;;;;18.99;41.03;102223.69;5120773;27;45462;-87
2021/05/29 20:35:01;;;;;;;;;9.50;7.75;;;;;18.94;41.15;102210.59;5121215;27;45212;-86
2021/05/29 20:37:28;;;;;;;;;5.50;5.50;;;;;18.93;44.31;102223.97;5121161;27;45198;-77
2021/05/29 20:39:54;;;;;;;;;10.75;8.00;;;;;19.04;45.00;102221.69;5128984;27;46252;-85
2021/05/29 20:42:19;;;;;;;;;8.25;8.00;;;;;19.32;45.43;102231.13;5129361;27;45326;-76
2021/05/29 20:44:44;;;;;;;;;7.75;7.75;;;;;19.72;44.97;102231.97;5125991;27;57205;-77
2021/05/29 20:47:10;;;;;;;;;9.25;8.25;;;;;20.05;44.60;102227.72;5107486;27;45334;-76
2021/05/29 20:49:35;;;;;;;;;9.00;8.00;;;;;20.33;44.47;102232.53;5125603;27;45037;-79
2021/05/29 20:52:01;;;;;;;;;9.50;8.50;;;;;20.57;44.39;102226.88;5123204;27;61142;-77
2021/05/29 20:54:28;;;;;;;;;9.50;7.50;;;;;20.78;44.22;102232.03;5123939;27;46347;-77
2021/05/29 20:56:55;;;;;;;;;6.25;6.25;;;;;20.99;43.36;102230.97;5105296;27;46534;-77
2021/05/29 20:59:23;;;;;;;;;8.00;6.75;;;;;21.16;43.81;102245.28;5117544;27;45600;-75
2021/05/29 21:01:48;;;;;;;;;6.50;6.50;;;;;21.28;43.75;102241.91;5119948;27;45289;-76
2021/05/29 21:04:15;;;;;;;;;7.00;7.00;;;;;21.40;43.36;102242.19;5123706;27;45323;-75
2021/05/29 21:06:41;;;;;;;;;5.50;5.50;;;;;21.52;43.32;102238.81;5090190;27;45556;-77
2021/05/29 21:09:06;;;;;;;;;8.25;6.75;;;;;21.64;43.13;102244.41;5121216;27;45793;-77
2021/05/29 21:11:32;;;;;;;;;5.50;5.50;;;;;21.74;42.97;102250.09;5106200;27;45358;-76
2021/05/29 21:14:00;;;;;;;;;7.75;6.50;;;;;21.81;42.77;102252.34;5106746;27;45252;-77
2021/05/29 21:16:33;;;;;;;;;8.75;7.00;;;;;21.88;43.29;102252.88;5087714;27;45447;-78
2021/05/29 21:21:43;;;;;;;;;6.75;6.75;;;;;21.98;42.84;102250.53;5133243;27;44881;-78
